sensor_id;sensor_type;location;lat;lon;timestamp;temperature;humidity
9640;DHT22;51745;50.872;4.732;2023-05-14T00:00:21;12.60;99.90
9640;DHT22;51745;50.872;4.732;2023-05-14T00:03:10;10.20;99.90
9640;DHT22;51745;50.872;4.732;2023-05-14T00:05:58;12.60;99.90
9640;DHT22;51745;50.872;4.732;2023-05-14T00:08:46;12.50;99.90
9640;DHT22;51745;50.872;4.732;2023-05-14T00:11:34;13.00;99.90
9640;DHT22;51745;50.872;4.732;2023-05-14T00:14:22;12.90;99.90
9640;DHT22;51745;50.872;4.732;2023-05-14T00:17:12;12.50;99.90
9640;DHT22;51745;50.872;4.732;2023-05-14T00:20:00;12.60;99.90
9640;DHT22;51745;50.872;4.732;2023-05-14T00:22:48;12.50;99.90
9640;DHT22;51745;50.872;4.732;2023-05-14T00:25:36;12.40;99.90
9640;DHT22;51745;50.872;4.732;2023-05-14T00:28:23;12.40;99.90
9640;DHT22;51745;50.872;4.732;2023-05-14T00:31:12;12.40;99.90
9640;DHT22;51745;50.872;4.732;2023-05-14T00:34:01;12.70;99.90
9640;DHT22;51745;50.872;4.732;2023-05-14T00:36:49;12.30;99.90
9640;DHT22;51745;50.872;4.732;2023-05-14T00:39:37;12.20;99.90
9640;DHT22;51745;50.872;4.732;2023-05-14T00:42:25;12.30;99.90
9640;DHT22;51745;50.872;4.732;2023-05-14T00:45:13;12.20;99.90
9640;DHT22;51745;50.872;4.732;2023-05-14T00:48:00;12.20;99.90
9640;DHT22;51745;50.872;4.732;2023-05-14T00:50:49;12.20;99.90
9640;DHT22;51745;50.872;4.732;2023-05-14T00:53:38;12.10;99.90
9640;DHT22;51745;50.872;4.732;2023-05-14T00:56:25;12.10;99.90
9640;DHT22;51745;50.872;4.732;2023-05-14T00:59:14;12.10;99.90
9640;DHT22;51745;50.872;4.732;2023-05-14T01:02:01;12.00;99.90
9640;DHT22;51745;50.872;4.732;2023-05-14T01:04:49;11.90;99.90
9640;DHT22;51745;50.872;4.732;2023-05-14T01:07:41;11.90;99.90
9640;DHT22;51745;50.872;4.732;2023-05-14T01:10:32;11.90;99.90
9640;DHT22;51745;50.872;4.732;2023-05-14T01:13:23;11.80;99.90
9640;DHT22;51745;50.872;4.732;2023-05-14T01:16:14;11.80;99.90
9640;DHT22;51745;50.872;4.732;2023-05-14T01:19:06;11.70;99.90
9640;DHT22;51745;50.872;4.732;2023-05-14T01:21:58;11.70;99.90
9640;DHT22;51745;50.872;4.732;2023-05-14T01:24:45;11.70;99.90
9640;DHT22;51745;50.872;4.732;2023-05-14T01:27:34;11.60;99.90
9640;DHT22;51745;50.872;4.732;2023-05-14T01:30:27;11.60;99.90
9640;DHT22;51745;50.872;4.732;2023-05-14T01:33:16;11.60;99.90
9640;DHT22;51745;50.872;4.732;2023-05-14T01:36:05;11.50;99.90
9640;DHT22;51745;50.872;4.732;2023-05-14T01:38:54;11.50;99.90
9640;DHT22;51745;50.872;4.732;2023-05-14T01:41:43;11.50;99.90
9640;DHT22;51745;50.872;4.732;2023-05-14T01:44:31;11.50;99.90
9640;DHT22;51745;50.872;4.732;2023-05-14T01:47:20;11.40;99.90
9640;DHT22;51745;50.872;4.732;2023-05-14T01:50:08;11.40;99.90
9640;DHT22;51745;50.872;4.732;2023-05-14T01:52:56;11.40;99.90
9640;DHT22;51745;50.872;4.732;2023-05-14T01:55:46;11.30;99.90
9640;DHT22;51745;50.872;4.732;2023-05-14T01:58:34;11.30;99.90
9640;DHT22;51745;50.872;4.732;2023-05-14T02:01:22;11.30;99.90
9640;DHT22;51745;50.872;4.732;2023-05-14T02:04:12;11.30;99.90
9640;DHT22;51745;50.872;4.732;2023-05-14T02:06:59;11.80;99.90
9640;DHT22;51745;50.872;4.732;2023-05-14T02:09:47;11.30;99.90
9640;DHT22;51745;50.872;4.732;2023-05-14T02:12:36;11.20;99.90
9640;DHT22;51745;50.872;4.732;2023-05-14T02:15:23;11.20;99.90
9640;DHT22;51745;50.872;4.732;2023-05-14T02:18:11;11.20;99.90
9640;DHT22;51745;50.872;4.732;2023-05-14T02:20:59;11.90;99.90
9640;DHT22;51745;50.872;4.732;2023-05-14T02:23:46;11.20;99.90
9640;DHT22;51745;50.872;4.732;2023-05-14T02:26:35;11.10;99.90
9640;DHT22;51745;50.872;4.732;2023-05-14T02:29:24;11.20;99.90
9640;DHT22;51745;50.872;4.732;2023-05-14T02:32:12;11.10;99.90
9640;DHT22;51745;50.872;4.732;2023-05-14T02:34:59;11.10;99.90
9640;DHT22;51745;50.872;4.732;2023-05-14T02:37:47;11.20;99.90
9640;DHT22;51745;50.872;4.732;2023-05-14T02:40:35;11.10;99.90
9640;DHT22;51745;50.872;4.732;2023-05-14T02:43:23;11.00;99.90
9640;DHT22;51745;50.872;4.732;2023-05-14T02:46:12;11.10;99.90
9640;DHT22;51745;50.872;4.732;2023-05-14T02:48:59;11.10;99.90
9640;DHT22;51745;50.872;4.732;2023-05-14T02:51:48;11.20;99.90
9640;DHT22;51745;50.872;4.732;2023-05-14T02:54:42;11.10;99.90
9640;DHT22;51745;50.872;4.732;2023-05-14T02:57:31;11.10;99.90
9640;DHT22;51745;50.872;4.732;2023-05-14T03:00:19;11.10;99.90
9640;DHT22;51745;50.872;4.732;2023-05-14T03:03:08;11.10;99.90
9640;DHT22;51745;50.872;4.732;2023-05-14T03:05:56;11.50;99.90
9640;DHT22;51745;50.872;4.732;2023-05-14T03:08:44;11.10;99.90
9640;DHT22;51745;50.872;4.732;2023-05-14T03:11:31;11.10;99.90
9640;DHT22;51745;50.872;4.732;2023-05-14T03:14:19;11.20;99.90
9640;DHT22;51745;50.872;4.732;2023-05-14T03:17:06;10.30;99.90
9640;DHT22;51745;50.872;4.732;2023-05-14T03:19:56;11.20;99.90
9640;DHT22;51745;50.872;4.732;2023-05-14T03:22:44;11.10;99.90
9640;DHT22;51745;50.872;4.732;2023-05-14T03:25:32;11.10;99.90
9640;DHT22;51745;50.872;4.732;2023-05-14T03:28:19;11.10;99.90
9640;DHT22;51745;50.872;4.732;2023-05-14T03:31:07;12.60;99.90
9640;DHT22;51745;50.872;4.732;2023-05-14T03:33:54;11.10;99.90
9640;DHT22;51745;50.872;4.732;2023-05-14T03:36:43;11.00;99.90
9640;DHT22;51745;50.872;4.732;2023-05-14T03:39:31;11.10;99.90
9640;DHT22;51745;50.872;4.732;2023-05-14T03:42:18;11.10;99.90
9640;DHT22;51745;50.872;4.732;2023-05-14T03:45:06;11.10;99.90
9640;DHT22;51745;50.872;4.732;2023-05-14T03:47:54;11.10;99.90
9640;DHT22;51745;50.872;4.732;2023-05-14T03:50:42;11.10;99.90
9640;DHT22;51745;50.872;4.732;2023-05-14T03:53:31;11.00;99.90
9640;DHT22;51745;50.872;4.732;2023-05-14T03:56:19;11.00;99.90
9640;DHT22;51745;50.872;4.732;2023-05-14T03:59:07;11.00;99.90
9640;DHT22;51745;50.872;4.732;2023-05-14T04:01:55;11.00;99.90
9640;DHT22;51745;50.872;4.732;2023-05-14T04:04:43;11.00;99.90
9640;DHT22;51745;50.872;4.732;2023-05-14T04:07:31;11.00;99.90
9640;DHT22;51745;50.872;4.732;2023-05-14T04:10:20;11.00;99.90
9640;DHT22;51745;50.872;4.732;2023-05-14T04:13:08;11.00;99.90
9640;DHT22;51745;50.872;4.732;2023-05-14T04:15:57;11.00;99.90
9640;DHT22;51745;50.872;4.732;2023-05-14T04:18:45;11.00;99.90
9640;DHT22;51745;50.872;4.732;2023-05-14T04:21:32;13.30;99.90
9640;DHT22;51745;50.872;4.732;2023-05-14T04:24:23;10.90;99.90
9640;DHT22;51745;50.872;4.732;2023-05-14T04:27:14;11.00;99.90
9640;DHT22;51745;50.872;4.732;2023-05-14T04:30:08;11.00;99.90
9640;DHT22;51745;50.872;4.732;2023-05-14T04:32:57;12.90;99.90
9640;DHT22;51745;50.872;4.732;2023-05-14T04:35:45;11.00;99.90
9640;DHT22;51745;50.872;4.732;2023-05-14T04:38:32;11.00;99.90
9640;DHT22;51745;50.872;4.732;2023-05-14T04:41:20;11.00;99.90
9640;DHT22;51745;50.872;4.732;2023-05-14T04:44:11;11.00;99.90
9640;DHT22;51745;50.872;4.732;2023-05-14T04:46:58;11.80;99.90
9640;DHT22;51745;50.872;4.732;2023-05-14T04:49:45;11.00;99.90
9640;DHT22;51745;50.872;4.732;2023-05-14T04:52:33;11.00;99.90
9640;DHT22;51745;50.872;4.732;2023-05-14T04:55:21;11.00;99.90
9640;DHT22;51745;50.872;4.732;2023-05-14T04:58:09;11.00;99.90
9640;DHT22;51745;50.872;4.732;2023-05-14T05:00:58;11.00;99.90
9640;DHT22;51745;50.872;4.732;2023-05-14T05:03:47;11.00;99.90
9640;DHT22;51745;50.872;4.732;2023-05-14T05:06:35;11.00;99.90
9640;DHT22;51745;50.872;4.732;2023-05-14T05:09:23;11.00;99.90
9640;DHT22;51745;50.872;4.732;2023-05-14T05:12:11;11.10;99.90
9640;DHT22;51745;50.872;4.732;2023-05-14T05:14:59;11.00;99.90
9640;DHT22;51745;50.872;4.732;2023-05-14T05:17:50;11.10;99.90
9640;DHT22;51745;50.872;4.732;2023-05-14T05:20:38;11.10;99.90
9640;DHT22;51745;50.872;4.732;2023-05-14T05:23:26;11.10;99.90
9640;DHT22;51745;50.872;4.732;2023-05-14T05:26:14;11.20;99.90
9640;DHT22;51745;50.872;4.732;2023-05-14T05:29:02;11.30;99.90
9640;DHT22;51745;50.872;4.732;2023-05-14T05:31:50;11.30;99.90
9640;DHT22;51745;50.872;4.732;2023-05-14T05:34:40;11.30;99.90
9640;DHT22;51745;50.872;4.732;2023-05-14T05:37:28;11.20;99.90
9640;DHT22;51745;50.872;4.732;2023-05-14T05:40:16;11.40;99.90
9640;DHT22;51745;50.872;4.732;2023-05-14T05:43:05;11.40;99.90
9640;DHT22;51745;50.872;4.732;2023-05-14T05:45:52;11.50;99.90
9640;DHT22;51745;50.872;4.732;2023-05-14T05:48:40;11.60;99.90
9640;DHT22;51745;50.872;4.732;2023-05-14T05:51:29;11.60;99.90
9640;DHT22;51745;50.872;4.732;2023-05-14T05:54:17;11.70;99.90
9640;DHT22;51745;50.872;4.732;2023-05-14T05:57:05;11.70;99.90
9640;DHT22;51745;50.872;4.732;2023-05-14T05:59:53;11.80;99.90
9640;DHT22;51745;50.872;4.732;2023-05-14T06:02:41;11.80;99.90
9640;DHT22;51745;50.872;4.732;2023-05-14T06:05:29;11.80;99.90
9640;DHT22;51745;50.872;4.732;2023-05-14T06:08:18;11.90;99.90
9640;DHT22;51745;50.872;4.732;2023-05-14T06:11:06;12.00;99.90
9640;DHT22;51745;50.872;4.732;2023-05-14T06:13:54;12.80;99.90
9640;DHT22;51745;50.872;4.732;2023-05-14T06:16:42;12.00;99.90
9640;DHT22;51745;50.872;4.732;2023-05-14T06:19:30;12.10;99.90
9640;DHT22;51745;50.872;4.732;2023-05-14T06:22:18;12.00;99.90
9640;DHT22;51745;50.872;4.732;2023-05-14T06:25:08;12.00;99.90
9640;DHT22;51745;50.872;4.732;2023-05-14T06:27:56;12.10;99.90
9640;DHT22;51745;50.872;4.732;2023-05-14T06:30:43;12.10;99.90
9640;DHT22;51745;50.872;4.732;2023-05-14T06:33:31;12.00;99.90
9640;DHT22;51745;50.872;4.732;2023-05-14T06:36:19;12.00;99.90
9640;DHT22;51745;50.872;4.732;2023-05-14T06:39:07;12.20;99.90
9640;DHT22;51745;50.872;4.732;2023-05-14T06:41:59;12.80;99.90
9640;DHT22;51745;50.872;4.732;2023-05-14T06:44:49;12.30;99.90
9640;DHT22;51745;50.872;4.732;2023-05-14T06:47:37;12.20;99.90
9640;DHT22;51745;50.872;4.732;2023-05-14T06:50:25;12.50;99.90
9640;DHT22;51745;50.872;4.732;2023-05-14T06:53:13;12.50;99.90
9640;DHT22;51745;50.872;4.732;2023-05-14T06:56:01;12.70;99.90
9640;DHT22;51745;50.872;4.732;2023-05-14T06:58:50;12.90;99.90
9640;DHT22;51745;50.872;4.732;2023-05-14T07:01:38;12.30;99.90
9640;DHT22;51745;50.872;4.732;2023-05-14T07:04:26;12.20;99.90
9640;DHT22;51745;50.872;4.732;2023-05-14T07:07:14;12.30;99.90
9640;DHT22;51745;50.872;4.732;2023-05-14T07:10:05;12.40;99.90
9640;DHT22;51745;50.872;4.732;2023-05-14T07:12:57;12.40;99.90
9640;DHT22;51745;50.872;4.732;2023-05-14T07:15:47;12.30;99.90
9640;DHT22;51745;50.872;4.732;2023-05-14T07:18:35;12.90;99.90
9640;DHT22;51745;50.872;4.732;2023-05-14T07:21:24;12.30;99.90
9640;DHT22;51745;50.872;4.732;2023-05-14T07:24:12;12.40;99.90
9640;DHT22;51745;50.872;4.732;2023-05-14T07:27:00;12.50;99.90
9640;DHT22;51745;50.872;4.732;2023-05-14T07:29:48;12.60;99.90
9640;DHT22;51745;50.872;4.732;2023-05-14T07:32:37;12.70;99.90
9640;DHT22;51745;50.872;4.732;2023-05-14T07:35:25;12.90;99.90
9640;DHT22;51745;50.872;4.732;2023-05-14T07:38:13;13.00;99.90
9640;DHT22;51745;50.872;4.732;2023-05-14T07:41:01;13.00;99.90
9640;DHT22;51745;50.872;4.732;2023-05-14T07:43:48;13.00;99.90
9640;DHT22;51745;50.872;4.732;2023-05-14T07:46:36;13.10;99.90
9640;DHT22;51745;50.872;4.732;2023-05-14T07:49:25;13.20;99.90
9640;DHT22;51745;50.872;4.732;2023-05-14T07:52:13;13.40;99.90
9640;DHT22;51745;50.872;4.732;2023-05-14T07:55:04;13.50;99.90
9640;DHT22;51745;50.872;4.732;2023-05-14T07:57:51;13.60;99.90
9640;DHT22;51745;50.872;4.732;2023-05-14T08:00:41;13.50;99.90
9640;DHT22;51745;50.872;4.732;2023-05-14T08:03:29;13.40;99.90
9640;DHT22;51745;50.872;4.732;2023-05-14T08:06:18;13.30;99.90
9640;DHT22;51745;50.872;4.732;2023-05-14T08:09:08;13.10;99.90
9640;DHT22;51745;50.872;4.732;2023-05-14T08:11:56;13.00;99.90
9640;DHT22;51745;50.872;4.732;2023-05-14T08:14:44;13.00;99.90
9640;DHT22;51745;50.872;4.732;2023-05-14T08:17:31;13.10;99.90
9640;DHT22;51745;50.872;4.732;2023-05-14T08:20:19;13.40;99.90
9640;DHT22;51745;50.872;4.732;2023-05-14T08:23:08;13.70;99.90
9640;DHT22;51745;50.872;4.732;2023-05-14T08:25:57;13.70;99.90
9640;DHT22;51745;50.872;4.732;2023-05-14T08:28:46;14.00;99.90
9640;DHT22;51745;50.872;4.732;2023-05-14T08:31:33;14.20;99.90
9640;DHT22;51745;50.872;4.732;2023-05-14T08:34:21;14.40;99.90
9640;DHT22;51745;50.872;4.732;2023-05-14T08:37:09;14.40;99.90
9640;DHT22;51745;50.872;4.732;2023-05-14T08:39:58;14.40;99.90
9640;DHT22;51745;50.872;4.732;2023-05-14T08:42:46;14.30;99.90
9640;DHT22;51745;50.872;4.732;2023-05-14T08:45:34;14.50;99.90
9640;DHT22;51745;50.872;4.732;2023-05-14T08:48:22;14.70;99.90
9640;DHT22;51745;50.872;4.732;2023-05-14T08:51:15;14.70;99.90
9640;DHT22;51745;50.872;4.732;2023-05-14T08:54:04;14.70;99.90
9640;DHT22;51745;50.872;4.732;2023-05-14T08:56:56;14.60;99.90
9640;DHT22;51745;50.872;4.732;2023-05-14T08:59:46;15.30;99.90
9640;DHT22;51745;50.872;4.732;2023-05-14T09:02:35;14.50;99.90
9640;DHT22;51745;50.872;4.732;2023-05-14T09:05:28;14.70;99.90
9640;DHT22;51745;50.872;4.732;2023-05-14T09:08:15;14.60;99.90
9640;DHT22;51745;50.872;4.732;2023-05-14T09:11:05;14.90;99.90
9640;DHT22;51745;50.872;4.732;2023-05-14T09:13:55;15.00;99.90
9640;DHT22;51745;50.872;4.732;2023-05-14T09:16:44;15.20;99.90
9640;DHT22;51745;50.872;4.732;2023-05-14T09:19:32;14.80;99.90
9640;DHT22;51745;50.872;4.732;2023-05-14T09:22:20;14.90;99.90
9640;DHT22;51745;50.872;4.732;2023-05-14T09:25:11;15.10;99.90
9640;DHT22;51745;50.872;4.732;2023-05-14T09:28:04;15.00;99.90
9640;DHT22;51745;50.872;4.732;2023-05-14T09:30:54;14.90;99.90
9640;DHT22;51745;50.872;4.732;2023-05-14T09:33:42;15.00;99.90
9640;DHT22;51745;50.872;4.732;2023-05-14T09:36:36;15.20;99.90
9640;DHT22;51745;50.872;4.732;2023-05-14T09:39:24;15.50;99.90
9640;DHT22;51745;50.872;4.732;2023-05-14T09:42:14;15.60;99.90
9640;DHT22;51745;50.872;4.732;2023-05-14T09:45:02;16.90;99.90
9640;DHT22;51745;50.872;4.732;2023-05-14T09:47:52;15.80;99.90
9640;DHT22;51745;50.872;4.732;2023-05-14T09:50:41;16.00;99.90
9640;DHT22;51745;50.872;4.732;2023-05-14T09:53:29;16.30;99.90
9640;DHT22;51745;50.872;4.732;2023-05-14T09:56:17;15.60;99.90
9640;DHT22;51745;50.872;4.732;2023-05-14T09:59:04;15.90;99.90
9640;DHT22;51745;50.872;4.732;2023-05-14T10:01:57;15.90;99.90
9640;DHT22;51745;50.872;4.732;2023-05-14T10:04:48;16.00;99.90
9640;DHT22;51745;50.872;4.732;2023-05-14T10:07:38;16.30;99.90
9640;DHT22;51745;50.872;4.732;2023-05-14T10:10:27;16.30;99.90
9640;DHT22;51745;50.872;4.732;2023-05-14T10:13:16;16.60;99.90
9640;DHT22;51745;50.872;4.732;2023-05-14T10:16:07;17.00;99.90
9640;DHT22;51745;50.872;4.732;2023-05-14T10:18:59;16.40;99.90
9640;DHT22;51745;50.872;4.732;2023-05-14T10:21:51;16.50;99.90
9640;DHT22;51745;50.872;4.732;2023-05-14T10:24:39;16.70;99.90
9640;DHT22;51745;50.872;4.732;2023-05-14T10:27:27;17.00;99.90
9640;DHT22;51745;50.872;4.732;2023-05-14T10:30:22;16.90;99.90
9640;DHT22;51745;50.872;4.732;2023-05-14T10:33:17;15.70;99.90
9640;DHT22;51745;50.872;4.732;2023-05-14T10:36:06;17.20;99.90
9640;DHT22;51745;50.872;4.732;2023-05-14T10:38:56;17.20;99.90
9640;DHT22;51745;50.872;4.732;2023-05-14T10:41:44;17.10;99.90
9640;DHT22;51745;50.872;4.732;2023-05-14T10:44:31;17.30;99.90
9640;DHT22;51745;50.872;4.732;2023-05-14T10:47:21;17.10;99.90
9640;DHT22;51745;50.872;4.732;2023-05-14T10:50:09;17.40;99.90
9640;DHT22;51745;50.872;4.732;2023-05-14T10:52:58;17.50;99.90
9640;DHT22;51745;50.872;4.732;2023-05-14T10:55:50;17.30;99.90
9640;DHT22;51745;50.872;4.732;2023-05-14T10:58:41;17.60;99.90
9640;DHT22;51745;50.872;4.732;2023-05-14T11:01:29;17.60;99.90
9640;DHT22;51745;50.872;4.732;2023-05-14T11:04:18;17.40;99.90
9640;DHT22;51745;50.872;4.732;2023-05-14T11:07:10;17.30;99.90
9640;DHT22;51745;50.872;4.732;2023-05-14T11:10:00;17.50;99.90
9640;DHT22;51745;50.872;4.732;2023-05-14T11:12:50;17.50;99.90
9640;DHT22;51745;50.872;4.732;2023-05-14T11:15:38;17.40;99.90
9640;DHT22;51745;50.872;4.732;2023-05-14T11:18:33;17.80;99.90
9640;DHT22;51745;50.872;4.732;2023-05-14T11:21:23;17.50;99.90
9640;DHT22;51745;50.872;4.732;2023-05-14T11:24:12;17.60;99.90
9640;DHT22;51745;50.872;4.732;2023-05-14T11:27:00;17.50;99.90
9640;DHT22;51745;50.872;4.732;2023-05-14T11:29:49;17.60;99.90
9640;DHT22;51745;50.872;4.732;2023-05-14T11:32:37;17.90;99.90
9640;DHT22;51745;50.872;4.732;2023-05-14T11:35:25;18.00;99.90
9640;DHT22;51745;50.872;4.732;2023-05-14T11:38:14;18.00;99.90
9640;DHT22;51745;50.872;4.732;2023-05-14T11:41:03;18.10;99.90
9640;DHT22;51745;50.872;4.732;2023-05-14T11:43:51;18.40;99.90
9640;DHT22;51745;50.872;4.732;2023-05-14T11:46:40;18.70;99.90
9640;DHT22;51745;50.872;4.732;2023-05-14T11:49:40;18.90;99.90
9640;DHT22;51745;50.872;4.732;2023-05-14T11:52:28;19.10;99.90
9640;DHT22;51745;50.872;4.732;2023-05-14T11:55:19;19.10;99.90
9640;DHT22;51745;50.872;4.732;2023-05-14T11:58:08;18.80;99.90
9640;DHT22;51745;50.872;4.732;2023-05-14T12:00:57;18.90;99.90
9640;DHT22;51745;50.872;4.732;2023-05-14T12:03:47;19.00;99.90
9640;DHT22;51745;50.872;4.732;2023-05-14T12:06:39;19.20;99.90
9640;DHT22;51745;50.872;4.732;2023-05-14T12:09:27;21.40;99.90
9640;DHT22;51745;50.872;4.732;2023-05-14T12:12:16;19.50;99.90
9640;DHT22;51745;50.872;4.732;2023-05-14T12:15:09;19.10;99.90
9640;DHT22;51745;50.872;4.732;2023-05-14T12:17:58;19.40;99.90
9640;DHT22;51745;50.872;4.732;2023-05-14T12:20:49;19.40;99.90
9640;DHT22;51745;50.872;4.732;2023-05-14T12:23:43;19.10;99.90
9640;DHT22;51745;50.872;4.732;2023-05-14T12:26:32;18.90;99.90
9640;DHT22;51745;50.872;4.732;2023-05-14T12:29:24;19.00;99.90
9640;DHT22;51745;50.872;4.732;2023-05-14T12:32:13;19.00;99.90
9640;DHT22;51745;50.872;4.732;2023-05-14T12:35:03;19.30;99.90
9640;DHT22;51745;50.872;4.732;2023-05-14T12:37:53;19.30;99.90
9640;DHT22;51745;50.872;4.732;2023-05-14T12:40:43;19.30;99.90
9640;DHT22;51745;50.872;4.732;2023-05-14T12:43:31;19.50;99.90
9640;DHT22;51745;50.872;4.732;2023-05-14T12:46:19;19.80;99.90
9640;DHT22;51745;50.872;4.732;2023-05-14T12:49:08;20.30;99.90
9640;DHT22;51745;50.872;4.732;2023-05-14T12:51:56;20.70;99.90
9640;DHT22;51745;50.872;4.732;2023-05-14T12:55:06;20.80;99.90
9640;DHT22;51745;50.872;4.732;2023-05-14T12:57:56;21.00;99.90
9640;DHT22;51745;50.872;4.732;2023-05-14T13:00:48;20.50;99.90
9640;DHT22;51745;50.872;4.732;2023-05-14T13:03:36;20.00;99.90
9640;DHT22;51745;50.872;4.732;2023-05-14T13:06:25;20.00;99.90
9640;DHT22;51745;50.872;4.732;2023-05-14T13:09:13;20.10;99.90
9640;DHT22;51745;50.872;4.732;2023-05-14T13:12:03;20.20;99.90
9640;DHT22;51745;50.872;4.732;2023-05-14T13:14:51;20.50;99.90
9640;DHT22;51745;50.872;4.732;2023-05-14T13:17:39;20.60;99.90
9640;DHT22;51745;50.872;4.732;2023-05-14T13:20:27;20.60;99.90
9640;DHT22;51745;50.872;4.732;2023-05-14T13:23:16;20.60;99.90
9640;DHT22;51745;50.872;4.732;2023-05-14T13:26:05;20.90;99.90
9640;DHT22;51745;50.872;4.732;2023-05-14T13:28:55;20.90;99.90
9640;DHT22;51745;50.872;4.732;2023-05-14T13:31:45;21.10;99.90
9640;DHT22;51745;50.872;4.732;2023-05-14T13:34:33;21.00;99.90
9640;DHT22;51745;50.872;4.732;2023-05-14T13:37:26;21.10;99.90
9640;DHT22;51745;50.872;4.732;2023-05-14T13:40:18;21.00;99.90
9640;DHT22;51745;50.872;4.732;2023-05-14T13:43:10;21.00;99.90
9640;DHT22;51745;50.872;4.732;2023-05-14T13:46:00;21.00;99.90
9640;DHT22;51745;50.872;4.732;2023-05-14T13:48:58;21.20;99.90
9640;DHT22;51745;50.872;4.732;2023-05-14T13:51:45;21.30;99.90
9640;DHT22;51745;50.872;4.732;2023-05-14T13:54:34;21.60;99.90
9640;DHT22;51745;50.872;4.732;2023-05-14T13:57:22;21.70;99.90
9640;DHT22;51745;50.872;4.732;2023-05-14T14:00:10;22.00;99.90
9640;DHT22;51745;50.872;4.732;2023-05-14T14:03:00;21.50;99.90
9640;DHT22;51745;50.872;4.732;2023-05-14T14:05:48;20.00;99.90
9640;DHT22;51745;50.872;4.732;2023-05-14T14:08:38;21.50;99.90
9640;DHT22;51745;50.872;4.732;2023-05-14T14:11:26;21.90;99.90
9640;DHT22;51745;50.872;4.732;2023-05-14T14:14:16;21.90;99.90
9640;DHT22;51745;50.872;4.732;2023-05-14T14:17:14;21.80;99.90
9640;DHT22;51745;50.872;4.732;2023-05-14T14:20:18;21.80;99.90
9640;DHT22;51745;50.872;4.732;2023-05-14T14:23:06;23.40;99.90
9640;DHT22;51745;50.872;4.732;2023-05-14T14:25:56;21.90;99.90
9640;DHT22;51745;50.872;4.732;2023-05-14T14:28:45;21.40;99.90
9640;DHT22;51745;50.872;4.732;2023-05-14T14:31:33;21.30;99.90
9640;DHT22;51745;50.872;4.732;2023-05-14T14:34:21;21.30;99.90
9640;DHT22;51745;50.872;4.732;2023-05-14T14:37:10;23.10;99.90
9640;DHT22;51745;50.872;4.732;2023-05-14T14:39:58;21.20;99.90
9640;DHT22;51745;50.872;4.732;2023-05-14T14:42:46;21.30;99.90
9640;DHT22;51745;50.872;4.732;2023-05-14T14:45:34;21.20;99.90
9640;DHT22;51745;50.872;4.732;2023-05-14T14:48:24;21.30;99.90
9640;DHT22;51745;50.872;4.732;2023-05-14T14:51:12;21.30;99.90
9640;DHT22;51745;50.872;4.732;2023-05-14T14:54:05;21.30;99.90
9640;DHT22;51745;50.872;4.732;2023-05-14T14:56:57;21.00;99.90
9640;DHT22;51745;50.872;4.732;2023-05-14T14:59:45;20.80;99.90
9640;DHT22;51745;50.872;4.732;2023-05-14T15:02:33;20.60;99.90
9640;DHT22;51745;50.872;4.732;2023-05-14T15:05:24;20.50;99.90
9640;DHT22;51745;50.872;4.732;2023-05-14T15:08:12;20.60;99.90
9640;DHT22;51745;50.872;4.732;2023-05-14T15:11:02;20.60;99.90
9640;DHT22;51745;50.872;4.732;2023-05-14T15:13:51;20.60;99.90
9640;DHT22;51745;50.872;4.732;2023-05-14T15:16:43;20.60;99.90
9640;DHT22;51745;50.872;4.732;2023-05-14T15:19:34;20.40;99.90
9640;DHT22;51745;50.872;4.732;2023-05-14T15:22:21;20.50;99.90
9640;DHT22;51745;50.872;4.732;2023-05-14T15:25:10;20.50;99.90
9640;DHT22;51745;50.872;4.732;2023-05-14T15:27:59;20.60;99.90
9640;DHT22;51745;50.872;4.732;2023-05-14T15:30:48;20.20;99.90
9640;DHT22;51745;50.872;4.732;2023-05-14T15:33:36;20.20;99.90
9640;DHT22;51745;50.872;4.732;2023-05-14T15:36:24;20.20;99.90
9640;DHT22;51745;50.872;4.732;2023-05-14T15:39:12;20.20;99.90
9640;DHT22;51745;50.872;4.732;2023-05-14T15:42:03;20.20;99.90
9640;DHT22;51745;50.872;4.732;2023-05-14T15:44:55;19.90;99.90
9640;DHT22;51745;50.872;4.732;2023-05-14T15:47:43;19.80;99.90
9640;DHT22;51745;50.872;4.732;2023-05-14T15:50:32;19.70;99.90
9640;DHT22;51745;50.872;4.732;2023-05-14T15:53:21;19.80;99.90
9640;DHT22;51745;50.872;4.732;2023-05-14T15:56:11;19.70;99.90
9640;DHT22;51745;50.872;4.732;2023-05-14T15:58:59;19.70;99.90
9640;DHT22;51745;50.872;4.732;2023-05-14T16:01:49;19.30;99.90
9640;DHT22;51745;50.872;4.732;2023-05-14T16:04:37;19.30;99.90
9640;DHT22;51745;50.872;4.732;2023-05-14T16:07:26;19.50;99.90
9640;DHT22;51745;50.872;4.732;2023-05-14T16:10:13;19.10;99.90
9640;DHT22;51745;50.872;4.732;2023-05-14T16:13:01;19.00;99.90
9640;DHT22;51745;50.872;4.732;2023-05-14T16:15:54;19.60;99.90
9640;DHT22;51745;50.872;4.732;2023-05-14T16:18:47;19.20;99.90
9640;DHT22;51745;50.872;4.732;2023-05-14T16:21:57;19.90;99.90
9640;DHT22;51745;50.872;4.732;2023-05-14T16:24:51;19.60;99.90
9640;DHT22;51745;50.872;4.732;2023-05-14T16:27:39;18.70;99.90
9640;DHT22;51745;50.872;4.732;2023-05-14T16:30:26;18.60;99.90
9640;DHT22;51745;50.872;4.732;2023-05-14T16:33:14;18.60;99.90
9640;DHT22;51745;50.872;4.732;2023-05-14T16:36:04;18.50;99.90
9640;DHT22;51745;50.872;4.732;2023-05-14T16:38:53;18.40;99.90
9640;DHT22;51745;50.872;4.732;2023-05-14T16:41:52;18.60;99.90
9640;DHT22;51745;50.872;4.732;2023-05-14T16:44:40;18.40;99.90
9640;DHT22;51745;50.872;4.732;2023-05-14T16:47:28;18.40;99.90
9640;DHT22;51745;50.872;4.732;2023-05-14T16:50:17;18.60;99.90
9640;DHT22;51745;50.872;4.732;2023-05-14T16:53:05;18.20;99.90
9640;DHT22;51745;50.872;4.732;2023-05-14T16:55:53;18.30;99.90
9640;DHT22;51745;50.872;4.732;2023-05-14T16:58:41;18.20;99.90
9640;DHT22;51745;50.872;4.732;2023-05-14T17:01:29;18.10;99.90
9640;DHT22;51745;50.872;4.732;2023-05-14T17:04:18;18.00;99.90
9640;DHT22;51745;50.872;4.732;2023-05-14T17:07:06;18.10;99.90
9640;DHT22;51745;50.872;4.732;2023-05-14T17:09:56;18.20;99.90
9640;DHT22;51745;50.872;4.732;2023-05-14T17:12:48;18.30;99.90
9640;DHT22;51745;50.872;4.732;2023-05-14T17:15:35;18.10;99.90
9640;DHT22;51745;50.872;4.732;2023-05-14T17:18:26;17.80;99.90
9640;DHT22;51745;50.872;4.732;2023-05-14T17:21:14;17.70;99.90
9640;DHT22;51745;50.872;4.732;2023-05-14T17:24:03;17.90;99.90
9640;DHT22;51745;50.872;4.732;2023-05-14T17:26:53;17.70;99.90
9640;DHT22;51745;50.872;4.732;2023-05-14T17:29:42;17.50;99.90
9640;DHT22;51745;50.872;4.732;2023-05-14T17:32:36;17.20;99.90
9640;DHT22;51745;50.872;4.732;2023-05-14T17:35:24;17.00;99.90
9640;DHT22;51745;50.872;4.732;2023-05-14T17:38:11;16.80;99.90
9640;DHT22;51745;50.872;4.732;2023-05-14T17:41:01;17.30;99.90
9640;DHT22;51745;50.872;4.732;2023-05-14T17:43:51;16.40;99.90
9640;DHT22;51745;50.872;4.732;2023-05-14T17:46:39;16.50;99.90
9640;DHT22;51745;50.872;4.732;2023-05-14T17:49:27;17.90;99.90
9640;DHT22;51745;50.872;4.732;2023-05-14T17:52:16;16.30;99.90
9640;DHT22;51745;50.872;4.732;2023-05-14T17:55:04;16.30;99.90
9640;DHT22;51745;50.872;4.732;2023-05-14T17:57:52;16.10;99.90
9640;DHT22;51745;50.872;4.732;2023-05-14T18:00:42;16.00;99.90
9640;DHT22;51745;50.872;4.732;2023-05-14T18:03:31;16.00;99.90